Time;durP1;ratioP1;P1;durP2;ratioP2;P2;SDS_P1;SDS_P2;PMS_P1;PMS_P2;Temp;Humidity;BMP_temperature;BMP_pressure;BME280_temperature;BME280_humidity;BME280_pressure;Samples;Min_cycle;Max_cycle;Signal;HPM_P1;HPM_P2
2021/04/12 00:00:22;;;;;;;8.17;2.50;;;;;;;18.02;48.69;101932.31;485271;28;1021;-64
2021/04/12 00:00:42;;;;;;;8.70;2.20;;;;;;;18.01;48.57;101927.91;482891;28;67609;-64
2021/04/12 00:01:04;;;;;;;8.35;2.08;;;;;;;18.04;48.95;101937.59;483677;28;44355;-64
2021/04/12 00:01:27;;;;;;;7.15;1.90;;;;;;;18.03;48.89;101931.31;485243;28;66153;-64
2021/04/12 00:01:56;;;;;;;7.40;2.20;;;;;;;18.03;48.70;101938.59;485154;28;66193;-64
2021/04/12 00:02:29;;;;;;;6.03;2.10;;;;;;;18.03;48.68;101939.44;485231;28;65953;-64
2021/04/12 00:02:48;;;;;;;10.65;2.00;;;;;;;18.02;48.88;101940.47;485171;28;66115;-64
2021/04/12 00:03:26;;;;;;;9.10;2.05;;;;;;;18.02;48.95;101937.75;487173;28;43771;-64
2021/04/12 00:03:47;;;;;;;5.50;2.10;;;;;;;18.02;48.71;101935.03;487019;28;66200;-64
2021/04/12 00:04:11;;;;;;;6.43;2.10;;;;;;;18.02;48.82;101940.47;486927;28;66822;-64
2021/04/12 00:04:42;;;;;;;7.00;2.08;;;;;;;18.03;48.62;101935.88;484487;28;66185;-64
2021/04/12 00:05:09;;;;;;;5.03;2.00;;;;;;;18.01;48.66;101933.34;487011;28;65340;-64
2021/04/12 00:05:42;;;;;;;6.30;2.10;;;;;;;18.02;48.74;101943.16;486151;28;90938;-64
2021/04/12 00:06:03;;;;;;;7.43;1.90;;;;;;;18.03;48.73;101938.59;486276;28;90870;-64
2021/04/12 00:06:32;;;;;;;8.45;1.90;;;;;;;18.01;48.03;101936.03;486872;28;66664;-64
2021/04/12 00:06:55;;;;;;;8.05;2.10;;;;;;;18.02;48.29;101934.19;484988;28;66163;-64
2021/04/12 00:07:27;;;;;;;7.68;2.00;;;;;;;18.02;48.39;101936.91;485369;28;66653;-64
2021/04/12 00:07:51;;;;;;;9.02;2.10;;;;;;;18.02;48.15;101940.47;485160;28;66061;-64
2021/04/12 00:08:11;;;;;;;7.90;2.00;;;;;;;18.01;48.35;101937.91;484942;28;90229;-64
2021/04/12 00:08:38;;;;;;;4.82;1.83;;;;;;;18.01;48.33;101940.63;486859;28;66655;-64
2021/04/12 00:09:01;;;;;;;6.60;2.00;;;;;;;18.01;48.65;101940.63;486736;28;65242;-64
2021/04/12 00:09:33;;;;;;;6.28;2.00;;;;;;;18.00;48.37;101937.06;486620;28;67062;-64
2021/04/12 00:09:52;;;;;;;6.32;1.90;;;;;;;18.00;48.50;101936.19;486582;28;66363;-64
2021/04/12 00:10:10;;;;;;;7.07;1.88;;;;;;;18.01;48.17;101937.91;487096;28;65575;-64
2021/04/12 00:10:46;;;;;;;7.22;1.80;;;;;;;18.02;48.53;101934.19;488283;28;29508;-64
2021/04/12 00:11:03;;;;;;;8.07;2.00;;;;;;;18.01;48.05;101937.91;485000;28;66060;-64
2021/04/12 00:11:38;;;;;;;6.35;1.98;;;;;;;18.01;48.34;101943.31;487044;28;13130;-64
2021/04/12 00:11:59;;;;;;;6.72;2.10;;;;;;;17.99;48.39;101942.63;485087;28;66245;-64
2021/04/12 00:12:20;;;;;;;5.30;1.80;;;;;;;17.98;48.46;101941.78;486229;28;67052;-64
2021/04/12 00:12:50;;;;;;;5.70;2.08;;;;;;;17.99;48.44;101938.06;486304;28;89520;-64
2021/04/12 00:13:08;;;;;;;5.25;1.90;;;;;;;18.00;48.45;101939.75;486990;28;66170;-64
2021/04/12 00:13:37;;;;;;;4.80;1.88;;;;;;;18.00;48.46;101938.91;486664;28;18765;-64
2021/04/12 00:14:24;;;;;;;6.40;1.85;;;;;;;17.99;48.82;101937.22;486198;28;66622;-64
2021/04/12 00:14:47;;;;;;;7.03;1.88;;;;;;;17.99;48.80;101939.91;486535;28;66094;-63
2021/04/12 00:15:38;;;;;;;8.20;1.90;;;;;;;17.98;48.61;101939.06;485155;28;66502;-64
2021/04/12 00:16:16;;;;;;;5.32;2.00;;;;;;;17.96;48.71;101938.41;482762;28;66587;-64
2021/04/12 00:16:45;;;;;;;5.97;1.83;;;;;;;17.96;48.57;101941.13;482800;28;67545;-64
2021/04/12 00:17:05;;;;;;;7.15;1.80;;;;;;;17.97;48.42;101939.25;485129;28;66327;-64
2021/04/12 00:17:25;;;;;;;4.97;2.03;;;;;;;17.97;48.51;101939.25;484373;28;79952;-64
2021/04/12 00:17:44;;;;;;;5.88;1.95;;;;;;;17.97;48.35;101939.25;485905;28;44357;-64
2021/04/12 00:18:22;;;;;;;5.40;1.90;;;;;;;17.98;48.10;101946.34;486814;28;46385;-63
2021/04/12 00:18:59;;;;;;;6.22;1.80;;;;;;;17.96;48.55;101942.97;484632;28;66705;-64
2021/04/12 00:19:16;;;;;;;4.57;1.73;;;;;;;17.96;48.23;101941.13;484110;28;87873;-64
2021/04/12 00:19:52;;;;;;;5.70;1.77;;;;;;;17.97;48.21;101939.25;486380;28;26499;-64
2021/04/12 00:20:27;;;;;;;8.05;2.00;;;;;;;17.97;48.63;101942.78;484950;28;65101;-64
2021/04/12 00:20:52;;;;;;;6.28;1.90;;;;;;;17.96;49.04;101942.97;485113;28;67526;-64
2021/04/12 00:21:22;;;;;;;6.15;1.88;;;;;;;17.95;48.85;101947.53;485167;28;66882;-64
2021/04/12 00:21:52;;;;;;;5.28;1.70;;;;;;;17.95;48.80;101943.97;485061;28;66300;-64
2021/04/12 00:22:31;;;;;;;4.65;1.65;;;;;;;17.97;48.62;101933.84;487049;28;66566;-64
2021/04/12 00:22:54;;;;;;;6.30;2.00;;;;;;;17.96;48.60;101951.09;487061;28;66115;-63
2021/04/12 00:23:47;;;;;;;4.70;1.80;;;;;;;17.95;48.52;101946.69;485109;28;66682;-64
2021/04/12 00:24:23;;;;;;;6.88;2.00;;;;;;;17.94;48.77;101944.97;484726;28;66753;-63
2021/04/12 00:24:55;;;;;;;4.82;2.15;;;;;;;17.94;48.78;101948.53;484794;28;65010;-63
2021/04/12 00:25:13;;;;;;;5.47;1.77;;;;;;;17.95;48.91;101946.69;484548;28;67416;-63
2021/04/12 00:25:37;;;;;;;5.80;1.80;;;;;;;17.94;48.59;101944.97;484453;28;19886;-63
2021/04/12 00:26:01;;;;;;;5.20;1.63;;;;;;;17.93;48.75;101946.84;482783;28;65334;-63
2021/04/12 00:26:54;;;;;;;5.20;1.73;;;;;;;17.91;48.68;101937.16;484809;28;66248;-63
2021/04/12 00:27:33;;;;;;;5.22;1.98;;;;;;;17.95;48.85;101941.28;481039;28;66565;-63
2021/04/12 00:27:55;;;;;;;4.75;1.80;;;;;;;17.94;48.69;101940.41;483750;28;66348;-64
2021/04/12 00:28:24;;;;;;;4.93;1.83;;;;;;;17.93;48.63;101935.16;484773;28;67796;-63
2021/04/12 00:28:48;;;;;;;4.55;1.83;;;;;;;17.92;48.46;101937.00;484682;28;66089;-63
2021/04/12 00:29:09;;;;;;;4.70;2.05;;;;;;;17.93;48.42;101938.72;484702;28;66602;-64
2021/04/12 00:29:32;;;;;;;5.60;1.77;;;;;;;17.93;48.60;101935.16;484621;28;67813;-63
2021/04/12 00:30:15;;;;;;;4.90;1.83;;;;;;;17.94;48.51;101939.56;484797;28;66906;-64
2021/04/12 00:30:44;;;;;;;5.72;1.80;;;;;;;17.92;48.78;101942.44;485080;28;67417;-63
2021/04/12 00:31:12;;;;;;;4.80;1.90;;;;;;;17.93;48.31;101946.84;484411;28;90311;-64
2021/04/12 00:31:42;;;;;;;4.40;1.75;;;;;;;17.95;48.44;101943.97;486979;28;66126;-63
2021/04/12 00:32:05;;;;;;;4.85;1.70;;;;;;;17.93;48.76;101938.72;486798;28;66040;-63
2021/04/12 00:32:32;;;;;;;5.57;1.85;;;;;;;17.93;48.71;101946.84;487008;28;67306;-63
2021/04/12 00:32:53;;;;;;;6.45;1.83;;;;;;;17.94;48.68;101936.84;487030;28;65290;-63
2021/04/12 00:33:20;;;;;;;5.18;1.90;;;;;;;17.93;48.65;101938.72;486625;28;66166;-63
2021/04/12 00:33:40;;;;;;;4.40;1.73;;;;;;;17.92;48.74;101937.00;486756;28;66515;-63
2021/04/12 00:34:02;;;;;;;5.13;1.48;;;;;;;17.92;48.61;101938.88;487906;28;44139;-63
2021/04/12 00:34:24;;;;;;;8.82;2.03;;;;;;;17.93;48.65;101938.72;486872;28;66332;-63
2021/04/12 00:34:47;;;;;;;4.65;1.80;;;;;;;17.92;48.90;101936.16;486308;28;88678;-63
2021/04/12 00:35:12;;;;;;;3.67;1.70;;;;;;;17.91;48.60;101938.03;486889;28;65559;-63
2021/04/12 00:35:35;;;;;;;4.72;1.70;;;;;;;17.91;48.87;101939.88;485055;28;65671;-63
2021/04/12 00:36:05;;;;;;;5.15;1.70;;;;;;;17.91;48.52;101940.72;484829;28;77115;-64
2021/04/12 00:36:36;;;;;;;4.55;1.70;;;;;;;17.90;49.09;101933.59;485083;28;66250;-63
2021/04/12 00:37:01;;;;;;;4.88;1.63;;;;;;;17.91;49.15;101929.91;486061;28;67638;-63
2021/04/12 00:37:42;;;;;;;4.38;1.65;;;;;;;17.90;48.76;101939.03;485171;28;65291;-63
2021/04/12 00:38:14;;;;;;;5.40;1.80;;;;;;;17.91;48.75;101939.88;486683;28;66563;-63
2021/04/12 00:38:54;;;;;;;4.35;1.55;;;;;;;17.91;48.70;101946.16;486890;28;66688;-63
2021/04/12 00:39:13;;;;;;;4.10;1.70;;;;;;;17.92;48.67;101941.59;485083;28;66453;-63
2021/04/12 00:39:41;;;;;;;4.35;1.60;;;;;;;17.90;48.46;101943.59;485828;28;43911;-63
2021/04/12 00:40:04;;;;;;;5.72;1.73;;;;;;;17.90;48.46;101941.72;485159;28;64521;-63
2021/04/12 00:40:43;;;;;;;6.15;1.80;;;;;;;17.92;48.54;101944.28;484984;28;67225;-63
2021/04/12 00:41:06;;;;;;;4.18;1.60;;;;;;;17.91;48.49;101938.03;486969;28;65661;-63
2021/04/12 00:41:52;;;;;;;5.20;1.70;;;;;;;17.91;48.80;101942.59;486899;28;66548;-63
2021/04/12 00:42:14;;;;;;;4.05;1.70;;;;;;;17.93;48.75;101946.00;486861;28;67441;-64
2021/04/12 00:42:39;;;;;;;4.00;1.60;;;;;;;17.92;48.47;101933.44;486913;28;66334;-63
2021/04/12 00:43:11;;;;;;;4.75;1.58;;;;;;;17.92;48.75;101936.16;487034;28;67721;-63
2021/04/12 00:43:53;;;;;;;4.15;1.70;;;;;;;17.93;49.28;101937.88;486762;28;67401;-64
2021/04/12 00:44:25;;;;;;;4.32;1.60;;;;;;;17.92;49.09;101938.88;485352;28;65145;-64
2021/04/12 00:44:42;;;;;;;3.97;1.65;;;;;;;17.91;48.89;101937.16;486973;28;66304;-63
2021/04/12 00:45:02;;;;;;;5.15;1.60;;;;;;;17.91;49.07;101940.72;489258;28;862;-64
2021/04/12 00:45:57;;;;;;;4.18;1.52;;;;;;;17.89;49.10;101934.63;486230;28;87901;-63
2021/04/12 00:46:45;;;;;;;5.75;1.75;;;;;;;17.91;48.83;101937.16;481017;28;66434;-63
2021/04/12 00:47:18;;;;;;;3.58;1.52;;;;;;;17.90;49.04;101935.47;481030;28;66568;-63
2021/04/12 00:48:05;;;;;;;5.15;1.50;;;;;;;17.89;48.87;101940.03;486209;28;66212;-63
2021/04/12 00:48:29;;;;;;;3.25;1.60;;;;;;;17.92;48.97;101941.59;486880;28;66323;-63
2021/04/12 00:49:01;;;;;;;4.57;1.70;;;;;;;17.89;49.08;101942.75;486940;28;66878;-64
2021/04/12 00:49:56;;;;;;;4.65;1.60;;;;;;;17.90;48.95;101944.44;486897;28;66101;-63
2021/04/12 00:50:48;;;;;;;3.20;1.50;;;;;;;17.89;49.03;101940.03;484853;28;67584;-63
2021/04/12 00:51:29;;;;;;;3.45;1.58;;;;;;;17.89;48.88;101945.44;485402;28;65891;-63
2021/04/12 00:51:55;;;;;;;3.17;1.55;;;;;;;17.91;48.82;101939.88;486915;28;66609;-63
2021/04/12 00:52:37;;;;;;;4.25;1.60;;;;;;;17.89;49.17;101937.31;486971;28;66124;-63
2021/04/12 00:53:10;;;;;;;3.45;1.35;;;;;;;17.88;48.95;101938.34;485677;28;88090;-63
2021/04/12 00:53:47;;;;;;;5.28;1.67;;;;;;;17.88;48.98;101935.63;485503;28;104048;-63
2021/04/12 00:54:04;;;;;;;3.15;1.40;;;;;;;17.87;48.98;101933.91;486884;28;66262;-63
2021/04/12 00:54:28;;;;;;;3.72;1.42;;;;;;;17.87;48.70;101931.22;488307;28;28582;-64
2021/04/12 00:55:05;;;;;;;5.60;1.60;;;;;;;17.87;48.94;101927.66;484452;28;82127;-63
2021/04/12 00:55:27;;;;;;;4.13;1.50;;;;;;;17.86;49.44;101926.81;484822;28;65138;-65
2021/04/12 00:55:50;;;;;;;3.80;1.50;;;;;;;17.89;48.88;101925.63;485846;28;66549;-64
2021/04/12 00:56:17;;;;;;;4.55;1.45;;;;;;;17.91;48.84;101931.75;486061;28;89593;-63
2021/04/12 00:56:45;;;;;;;3.03;1.50;;;;;;;17.91;48.78;101929.91;486948;28;65955;-63
2021/04/12 00:57:17;;;;;;;5.97;1.60;;;;;;;17.92;49.07;101928.03;486972;28;66077;-63
2021/04/12 00:57:46;;;;;;;4.10;1.50;;;;;;;17.93;49.17;101927.88;484957;28;66243;-64
2021/04/12 00:58:36;;;;;;;4.53;1.80;;;;;;;17.93;48.86;101927.88;485086;28;65196;-64
2021/04/12 00:59:12;;;;;;;4.35;1.55;;;;;;;17.94;49.37;101928.72;482947;28;66573;-64
2021/04/12 00:59:44;;;;;;;4.07;1.50;;;;;;;17.94;49.11;101926.88;480963;28;66268;-64
2021/04/12 01:00:13;;;;;;;5.50;1.70;;;;;;;17.95;49.09;101928.56;482936;28;66234;-64
2021/04/12 01:00:38;;;;;;;4.13;1.42;;;;;;;17.94;49.27;101929.56;482921;28;66507;-64
2021/04/12 01:01:07;;;;;;;4.03;1.50;;;;;;;17.95;49.20;101925.00;482953;28;66131;-64
2021/04/12 01:01:42;;;;;;;3.95;1.60;;;;;;;17.95;49.41;101928.56;482578;28;65248;-64
2021/04/12 01:02:23;;;;;;;5.93;1.80;;;;;;;17.94;49.18;101923.31;487084;28;66558;-64
2021/04/12 01:02:48;;;;;;;3.05;1.48;;;;;;;17.94;49.40;101929.56;486535;28;64430;-64
2021/04/12 01:03:40;;;;;;;3.25;1.58;;;;;;;17.94;49.47;101926.88;486799;28;66219;-64
2021/04/12 01:04:00;;;;;;;3.88;1.50;;;;;;;17.95;49.06;101928.56;487015;28;64934;-64
2021/04/12 01:04:47;;;;;;;3.90;1.60;;;;;;;17.95;49.45;101933.13;486215;28;90791;-64
2021/04/12 01:05:14;;;;;;;3.50;1.40;;;;;;;17.95;48.91;101922.31;484860;28;66218;-64
2021/04/12 01:06:09;;;;;;;4.22;1.50;;;;;;;17.96;49.14;101924.84;485059;28;66715;-63
2021/04/12 01:07:01;;;;;;;3.47;1.33;;;;;;;17.95;50.23;101923.16;482550;28;66020;-64
2021/04/12 01:07:27;;;;;;;3.42;1.40;;;;;;;17.96;49.58;101927.56;482762;28;65934;-64
2021/04/12 01:08:12;;;;;;;3.75;1.40;;;;;;;17.95;49.46;101917.75;482911;28;66406;-64
2021/04/12 01:09:02;;;;;;;4.70;1.60;;;;;;;17.94;49.60;101921.44;482903;28;64883;-64
2021/04/12 01:09:51;;;;;;;5.47;1.40;;;;;;;17.94;50.38;101918.75;484262;28;65998;-64
2021/04/12 01:10:27;;;;;;;4.53;1.58;;;;;;;17.94;49.98;101913.31;483893;28;89258;-64
2021/04/12 01:10:44;;;;;;;4.15;1.50;;;;;;;17.95;50.12;101914.19;484931;28;66251;-64
2021/04/12 01:11:20;;;;;;;3.80;1.60;;;;;;;17.94;49.81;101910.63;487350;28;1005;-63
2021/04/12 01:11:52;;;;;;;3.67;1.40;;;;;;;17.94;49.87;101913.31;486420;28;64768;-64
2021/04/12 01:12:34;;;;;;;3.67;1.50;;;;;;;17.95;49.56;101908.75;486977;28;65034;-64
2021/04/12 01:13:24;;;;;;;3.65;1.60;;;;;;;17.94;49.87;101902.50;487012;28;66355;-64
2021/04/12 01:13:56;;;;;;;2.38;1.33;;;;;;;17.96;50.17;101910.47;484971;28;66209;-64
2021/04/12 01:14:10;;;;;;;3.67;1.45;;;;;;;17.95;49.93;101911.47;485100;28;65110;-64
2021/04/12 01:14:51;;;;;;;2.63;1.35;;;;;;;17.94;49.73;101912.47;487375;28;815;-64
2021/04/12 01:15:39;;;;;;;3.05;1.38;;;;;;;17.95;50.31;101911.47;485119;28;67478;-64
2021/04/12 01:16:19;;;;;;;3.25;1.40;;;;;;;17.95;49.83;101906.91;484962;28;65814;-64
2021/04/12 01:16:42;;;;;;;3.67;1.55;;;;;;;17.94;50.36;101910.63;485612;28;66183;-64
2021/04/12 01:17:26;;;;;;;3.78;1.40;;;;;;;17.95;50.58;101911.47;486916;28;66100;-64
2021/04/12 01:17:59;;;;;;;3.40;1.38;;;;;;;17.94;50.43;101905.19;485116;28;66215;-64
2021/04/12 01:18:50;;;;;;;3.33;1.20;;;;;;;17.95;50.61;101904.19;485249;28;66027;-64
2021/04/12 01:19:29;;;;;;;3.63;1.40;;;;;;;17.94;50.09;101913.31;487048;28;66151;-63
2021/04/12 01:20:02;;;;;;;3.78;1.50;;;;;;;17.95;49.54;101904.19;486952;28;66177;-64
2021/04/12 01:20:35;;;;;;;4.68;1.50;;;;;;;17.95;50.22;101904.19;485464;28;66042;-63
2021/04/12 01:20:58;;;;;;;3.22;1.50;;;;;;;17.96;50.41;101902.34;486777;28;71813;-64
2021/04/12 01:21:36;;;;;;;3.92;1.60;;;;;;;17.96;50.29;101908.59;486870;28;66490;-64
2021/04/12 01:22:08;;;;;;;4.00;1.50;;;;;;;17.96;49.91;101913.16;485021;28;66238;-63
2021/04/12 01:23:00;;;;;;;2.80;1.40;;;;;;;17.95;50.08;101915.03;485042;28;66155;-63
2021/04/12 01:23:33;;;;;;;3.58;1.38;;;;;;;17.95;49.58;101908.75;485086;28;66268;-64
2021/04/12 01:23:56;;;;;;;2.60;1.40;;;;;;;17.95;49.29;101912.31;485136;28;65182;-64
2021/04/12 01:24:29;;;;;;;2.83;1.35;;;;;;;17.94;48.78;101904.34;484962;28;66412;-63
2021/04/12 01:25:02;;;;;;;3.20;1.35;;;;;;;17.92;48.97;101907.22;484333;28;82457;-64
2021/04/12 01:25:41;;;;;;;3.05;1.33;;;;;;;17.90;48.43;101905.66;486037;28;65181;-64
2021/04/12 01:26:17;;;;;;;3.53;1.50;;;;;;;17.89;48.60;101904.81;486975;28;66374;-64
2021/04/12 01:27:18;;;;;;;2.80;1.40;;;;;;;17.87;48.37;101895.16;486968;28;65196;-63
2021/04/12 01:28:06;;;;;;;3.05;1.30;;;;;;;17.87;48.73;101900.56;482370;28;66131;-64
2021/04/12 01:28:27;;;;;;;4.18;1.50;;;;;;;17.88;48.41;101904.97;482806;28;65812;-64
2021/04/12 01:28:56;;;;;;;3.22;1.50;;;;;;;17.89;48.43;101906.69;480958;28;66686;-64
2021/04/12 01:29:47;;;;;;;3.72;1.42;;;;;;;17.89;49.11;101904.81;480823;28;67562;-63
2021/04/12 01:30:39;;;;;;;2.90;1.30;;;;;;;17.89;49.01;101904.81;485006;28;66164;-63
2021/04/12 01:31:28;;;;;;;3.50;1.23;;;;;;;17.91;48.75;101896.53;484303;28;87233;-64
2021/04/12 01:32:24;;;;;;;3.58;1.40;;;;;;;17.92;48.59;101903.66;484977;28;66215;-64
2021/04/12 01:33:05;;;;;;;3.78;1.30;;;;;;;17.62;45.87;101907.63;483582;28;67095;-64
2021/04/12 01:33:43;;;;;;;5.45;1.50;;;;;;;17.25;45.58;101897.81;484773;28;66181;-64
2021/04/12 01:34:35;;;;;;;4.90;1.40;;;;;;;16.77;46.72;101900.84;482811;28;66115;-64
2021/04/12 01:34:52;;;;;;;4.62;1.52;;;;;;;16.68;46.87;101899.88;484247;28;89285;-64
2021/04/12 01:35:41;;;;;;;4.90;1.48;;;;;;;16.91;47.88;101900.31;487947;28;882;-64
2021/04/12 01:36:22;;;;;;;7.88;1.60;;;;;;;17.13;47.02;101889.06;482712;28;66337;-64
2021/04/12 01:37:04;;;;;;;6.50;1.50;;;;;;;17.29;46.84;101901.06;482744;28;66478;-64
2021/04/12 01:37:43;;;;;;;5.25;1.50;;;;;;;17.45;47.06;101893.94;484587;28;65864;-63
2021/04/12 01:38:19;;;;;;;7.07;1.42;;;;;;;17.50;47.96;101893.47;485012;28;66687;-64
2021/04/12 01:38:42;;;;;;;5.30;1.40;;;;;;;17.59;48.32;101895.22;484250;28;89201;-64
2021/04/12 01:39:15;;;;;;;5.53;1.30;;;;;;;17.62;48.35;101894.94;485108;28;66370;-63
2021/04/12 01:39:29;;;;;;;4.80;1.38;;;;;;;17.67;48.59;101899.91;484944;28;65239;-64
2021/04/12 01:39:46;;;;;;;5.03;1.30;;;;;;;17.68;48.42;101902.47;486955;28;936;-64
2021/04/12 01:40:18;;;;;;;4.40;1.30;;;;;;;17.72;48.05;101909.28;488009;28;922;-64
2021/04/12 01:41:11;;;;;;;3.90;1.27;;;;;;;17.76;48.77;101907.91;485065;28;67456;-64
2021/04/12 01:41:45;;;;;;;4.57;1.30;;;;;;;17.79;48.64;101895.94;484926;28;65273;-64
2021/04/12 01:42:18;;;;;;;4.50;1.30;;;;;;;17.83;48.59;101901.88;484785;28;66302;-64
2021/04/12 01:42:55;;;;;;;4.65;1.50;;;;;;;17.83;48.55;101901.88;486668;28;73837;-63
2021/04/12 01:43:34;;;;;;;3.33;1.33;;;;;;;17.85;48.51;101900.72;486979;28;66057;-64
2021/04/12 01:44:25;;;;;;;4.50;1.45;;;;;;;17.85;48.77;101899.88;486875;28;65688;-63
2021/04/12 01:44:41;;;;;;;4.65;1.55;;;;;;;17.86;48.96;101896.16;487029;28;65130;-64
2021/04/12 01:45:37;;;;;;;2.78;1.30;;;;;;;17.87;48.43;101900.56;489127;28;913;-64
2021/04/12 01:46:06;;;;;;;4.85;1.30;;;;;;;17.87;48.27;101897.84;486600;28;67415;-64
2021/04/12 01:46:37;;;;;;;4.90;1.30;;;;;;;17.88;48.47;101896.84;486900;28;65023;-64
2021/04/12 01:47:12;;;;;;;4.53;1.38;;;;;;;17.89;47.85;101895.84;487012;28;66435;-64
2021/04/12 01:47:42;;;;;;;6.65;1.30;;;;;;;17.89;48.64;101895.84;485713;28;65248;-64
2021/04/12 01:48:28;;;;;;;4.13;1.48;;;;;;;17.90;48.70;101894.84;485004;28;65854;-64
2021/04/12 01:48:46;;;;;;;3.28;1.48;;;;;;;17.90;48.85;101898.38;484938;28;66256;-64
2021/04/12 01:49:26;;;;;;;3.38;1.40;;;;;;;17.90;48.70;101900.25;488869;28;1117;-64
2021/04/12 01:49:53;;;;;;;5.00;1.30;;;;;;;17.92;48.10;101906.38;484884;28;66093;-64
2021/04/12 01:50:48;;;;;;;3.67;1.30;;;;;;;17.91;48.93;101904.66;484025;28;88797;-64
2021/04/12 01:51:39;;;;;;;3.88;1.30;;;;;;;17.91;48.78;101900.09;484511;28;66289;-64
2021/04/12 01:52:12;;;;;;;3.03;1.20;;;;;;;17.93;48.57;101902.66;486962;28;67312;-64
2021/04/12 01:53:00;;;;;;;3.35;1.20;;;;;;;17.93;48.64;101905.34;486306;28;79434;-64
2021/04/12 01:53:32;;;;;;;3.88;1.40;;;;;;;17.93;48.92;101908.06;486375;28;66033;-64
2021/04/12 01:53:56;;;;;;;4.10;1.38;;;;;;;17.92;49.05;101904.50;487039;28;66183;-64
2021/04/12 01:54:49;;;;;;;3.17;1.30;;;;;;;17.92;48.34;101900.94;486183;28;89324;-64
2021/04/12 01:55:19;;;;;;;3.08;1.20;;;;;;;17.92;48.93;101901.78;484996;28;66460;-64
2021/04/12 01:55:42;;;;;;;8.88;1.20;;;;;;;17.93;49.01;101902.66;485140;28;64884;-64
2021/04/12 01:56:14;;;;;;;2.30;1.13;;;;;;;17.92;48.67;101907.22;487077;28;65233;-64
2021/04/12 01:56:35;;;;;;;4.57;1.40;;;;;;;17.93;49.13;101911.63;485430;28;81173;-64
2021/04/12 01:57:05;;;;;;;4.00;1.60;;;;;;;17.92;49.24;101904.50;486977;28;67045;-64
2021/04/12 01:57:50;;;;;;;3.38;1.30;;;;;;;17.92;49.04;101907.22;486816;28;65080;-64
2021/04/12 01:58:43;;;;;;;5.10;1.40;;;;;;;17.95;48.84;101908.75;485905;28;64957;-64
2021/04/12 01:59:15;;;;;;;3.00;1.33;;;;;;;17.93;48.34;101900.78;487334;28;66615;-64
2021/04/12 02:00:00;;;;;;;2.78;1.40;;;;;;;17.93;49.37;101903.50;487028;28;65247;-64
2021/04/12 02:00:30;;;;;;;2.45;1.20;;;;;;;17.95;49.21;101911.47;487325;28;66601;-64
2021/04/12 02:00:58;;;;;;;4.28;1.27;;;;;;;17.94;49.32;101905.19;486495;28;87987;-64
2021/04/12 02:01:24;;;;;;;2.90;1.20;;;;;;;17.95;49.19;101904.19;487089;28;66075;-64
2021/04/12 02:01:53;;;;;;;2.58;1.10;;;;;;;17.95;49.21;101906.91;487157;28;66462;-63
2021/04/12 02:02:40;;;;;;;2.78;1.30;;;;;;;17.95;49.54;101906.03;487161;28;66191;-64
2021/04/12 02:03:00;;;;;;;2.63;1.17;;;;;;;17.94;48.78;101902.50;487198;28;66107;-64
2021/04/12 02:03:23;;;;;;;2.05;1.20;;;;;;;17.95;49.13;101900.63;484553;28;88461;-64
2021/04/12 02:03:53;;;;;;;2.13;1.20;;;;;;;17.94;48.45;101902.50;485244;28;67297;-64
2021/04/12 02:04:18;;;;;;;3.03;1.33;;;;;;;17.95;48.50;101900.63;484416;28;87643;-64
2021/04/12 02:04:33;;;;;;;3.53;1.30;;;;;;;17.95;49.00;101906.03;485135;28;66665;-64
2021/04/12 02:04:53;;;;;;;3.10;1.23;;;;;;;17.94;48.34;101904.34;489253;28;1020;-64
2021/04/12 02:05:17;;;;;;;2.40;1.10;;;;;;;17.95;49.05;101906.03;486411;28;82968;-64
2021/04/12 02:05:44;;;;;;;2.67;1.10;;;;;;;17.94;48.27;101910.63;486806;28;66960;-63
2021/04/12 02:06:24;;;;;;;1.65;1.10;;;;;;;17.96;48.67;101910.47;487181;28;66440;-64
2021/04/12 02:07:35;;;;;;;3.47;1.38;;;;;;;17.95;48.66;101901.47;481186;28;66149;-64
2021/04/12 02:08:31;;;;;;;2.53;1.25;;;;;;;17.96;48.97;101900.47;481197;28;66962;-64
2021/04/12 02:09:23;;;;;;;2.38;1.08;;;;;;;17.95;49.64;101901.47;479261;28;65085;-64
2021/04/12 02:10:11;;;;;;;2.97;1.10;;;;;;;17.95;48.91;101900.63;479133;28;65117;-64
2021/04/12 02:11:02;;;;;;;3.22;1.02;;;;;;;17.94;49.31;101904.34;482231;28;66387;-64
2021/04/12 02:11:32;;;;;;;2.90;1.20;;;;;;;17.95;48.89;101906.03;483039;28;66678;-64
2021/04/12 02:12:10;;;;;;;2.88;1.23;;;;;;;17.94;48.30;101901.63;481211;28;67066;-64
2021/04/12 02:12:51;;;;;;;2.25;1.20;;;;;;;17.95;48.87;101904.19;480513;28;88590;-64
2021/04/12 02:13:50;;;;;;;2.25;1.20;;;;;;;17.95;48.37;101904.19;481315;28;66831;-64
2021/04/12 02:14:43;;;;;;;2.15;1.10;;;;;;;17.95;48.82;101901.47;481219;28;65180;-64
2021/04/12 02:15:19;;;;;;;3.35;1.20;;;;;;;17.96;48.95;101894.19;480952;28;67609;-64
2021/04/12 02:15:52;;;;;;;2.88;1.10;;;;;;;17.96;48.90;101895.06;481219;28;65049;-64
2021/04/12 02:16:25;;;;;;;2.92;1.35;;;;;;;17.95;49.34;101896.06;485795;28;65245;-64
2021/04/12 02:16:56;;;;;;;2.95;1.30;;;;;;;17.94;48.98;101885.38;486478;28;73049;-64
2021/04/12 02:18:11;;;;;;;2.40;1.10;;;;;;;17.91;49.17;101880.28;487302;28;67000;-64
2021/04/12 02:18:41;;;;;;;2.42;1.10;;;;;;;17.96;49.04;101895.06;486802;28;66180;-64
2021/04/12 02:19:31;;;;;;;2.70;1.40;;;;;;;17.98;49.59;101881.31;486953;28;66232;-64
2021/04/12 02:19:48;;;;;;;2.80;1.20;;;;;;;18.00;49.67;101879.31;485709;28;66494;-64
2021/04/12 02:20:28;;;;;;;2.35;1.30;;;;;;;17.99;49.34;101874.91;489021;28;1234;-64
2021/04/12 02:21:20;;;;;;;2.88;1.10;;;;;;;18.01;48.99;101870.16;486759;28;66065;-64
2021/04/12 02:21:56;;;;;;;2.13;1.10;;;;;;;18.00;49.57;101874.72;487040;28;65244;-64
2021/04/12 02:22:10;;;;;;;2.17;1.00;;;;;;;18.00;49.53;101877.44;487345;28;66515;-64
2021/04/12 02:23:06;;;;;;;2.57;1.10;;;;;;;17.99;49.46;101874.91;489521;28;965;-64
2021/04/12 02:24:01;;;;;;;2.70;1.35;;;;;;;17.95;49.47;101866.25;483501;28;66715;-64
2021/04/12 02:24:28;;;;;;;2.50;1.20;;;;;;;17.98;49.02;101870.47;484954;28;67235;-63
2021/04/12 02:25:08;;;;;;;2.40;1.10;;;;;;;17.97;48.67;101868.81;487235;28;65173;-64
2021/04/12 02:26:00;;;;;;;3.60;1.38;;;;;;;17.97;48.67;101871.53;485340;28;64589;-64
2021/04/12 02:26:51;;;;;;;2.65;1.15;;;;;;;17.97;49.23;101868.81;485323;28;65138;-64
2021/04/12 02:27:22;;;;;;;2.95;1.20;;;;;;;17.97;49.09;101866.09;485277;28;67726;-64
2021/04/12 02:27:51;;;;;;;2.72;1.10;;;;;;;17.96;49.21;101864.41;485315;28;66213;-63
2021/04/12 02:28:32;;;;;;;1.98;1.10;;;;;;;17.96;49.68;101864.41;485301;28;66910;-64
2021/04/12 02:29:23;;;;;;;2.65;1.17;;;;;;;17.96;49.03;101859.84;483029;28;64855;-64
2021/04/12 02:30:19;;;;;;;3.47;1.15;;;;;;;17.95;48.98;101868.13;479310;28;66651;-64
2021/04/12 02:30:48;;;;;;;2.25;1.05;;;;;;;17.96;49.56;101865.25;479424;28;66351;-64
2021/04/12 02:31:30;;;;;;;1.83;1.05;;;;;;;17.96;49.08;101864.41;487026;28;67589;-63
2021/04/12 02:32:18;;;;;;;2.70;1.10;;;;;;;17.95;49.03;101868.97;487162;28;66225;-63
2021/04/12 02:33:06;;;;;;;2.30;1.00;;;;;;;17.95;49.05;101871.69;486001;28;67317;-63
2021/04/12 02:33:38;;;;;;;3.33;1.10;;;;;;;17.96;49.70;101875.25;487220;28;66490;-64
2021/04/12 02:34:07;;;;;;;4.10;1.27;;;;;;;17.95;48.94;101868.97;487091;28;64479;-64
2021/04/12 02:34:40;;;;;;;2.70;1.13;;;;;;;17.95;48.91;101874.38;487031;28;66407;-63
2021/04/12 02:35:16;;;;;;;1.80;1.02;;;;;;;17.96;48.69;101873.38;487055;28;66097;-63
2021/04/12 02:35:38;;;;;;;2.40;1.10;;;;;;;17.96;48.49;101867.97;486998;28;65929;-63
2021/04/12 02:36:30;;;;;;;1.92;1.00;;;;;;;17.98;48.78;101879.47;486506;28;66528;-62
2021/04/12 02:36:56;;;;;;;2.97;1.10;;;;;;;17.97;49.72;101868.81;487232;28;66250;-64
2021/04/12 02:37:34;;;;;;;1.98;1.02;;;;;;;17.99;49.38;101877.59;485229;28;64739;-64
2021/04/12 02:37:48;;;;;;;3.25;1.13;;;;;;;18.00;49.08;101877.44;486313;28;67488;-63
2021/04/12 02:38:09;;;;;;;2.90;1.10;;;;;;;18.00;49.07;101876.59;489612;28;935;-63
2021/04/12 02:38:38;;;;;;;1.73;1.00;;;;;;;18.00;49.00;101877.44;486528;28;84817;-63
2021/04/12 02:39:29;;;;;;;2.22;1.10;;;;;;;17.99;48.58;101874.91;484850;28;66431;-63
2021/04/12 02:39:56;;;;;;;2.30;1.10;;;;;;;17.99;48.88;101875.75;485355;28;66281;-63